Brechin, United Kingdom
Current Conditions -  °F | °C
As of 10:50 AM on Wednesday 22 Oct 2014 (Local Time) from EGPN Reporting Station
Broken Clouds Broken Clouds  
Wind Chill: 50°   Ceiling: 4000
Heat Index: 50°   Visibility: 6mi
Dew Point: 46°   Wind: 13mph
Humidity: 87%   Direction: 230°SW
Pressure: 30"   Gusts: NA
Location:  56.73°N, 2.66°W
Report Text: EGPN 220950Z 23011KT 9999 SCT025 BKN040 10/08 Q1016
Loading
Personal Weather Stations






























Interactive Weather Map
Tropical Storm Tracking
New forecast layout! Learn more

10-Day Weather Forecast

Advertisements
Track Severe Weather on mobile